South Molton, United Kingdom
Current Conditions -  °F | °C
As of 8:20 PM on Tuesday 21 Oct 2014 (Local Time) from EGTE Reporting Station
Few Clouds Few Clouds  
Wind Chill:   Ceiling: Unl
Heat Index:   Visibility: 6mi
Dew Point:   Wind: 12mph
Humidity: 76%   Direction: 320°NW
Pressure: 30.18"   Gusts: NA
Location:  51.02°N, 3.83°W
Report Text: EGTE 211920Z 32010KT 9999 FEW020 09/05 Q1022
Loading
Personal Weather Stations






























Interactive Weather Map
Tropical Storm Tracking
New forecast layout! Learn more

10-Day Weather Forecast

Advertisements
Track Severe Weather on mobile